Time;durP1;ratioP1;P1;durP2;ratioP2;P2;SDS_P1;SDS_P2;PMS_P1;PMS_P2;Temp;Humidity;BMP_temperature;BMP_pressure;BME280_temperature;BME280_humidity;BME280_pressure;Samples;Min_cycle;Max_cycle;Signal;HPM_P1;HPM_P2
2021/07/06 00:00:47;;;;;;;3.45;1.65;;;21.90;63.40;;;;;;5034091;28;20539;-74
2021/07/06 00:03:13;;;;;;;4.95;1.80;;;21.90;63.40;;;;;;5033757;28;20021;-74
2021/07/06 00:05:38;;;;;;;6.63;1.83;;;21.90;63.40;;;;;;5033201;28;20056;-74
2021/07/06 00:08:04;;;;;;;5.10;1.95;;;21.90;63.40;;;;;;5032984;28;20520;-74
2021/07/06 00:10:30;;;;;;;5.03;1.85;;;21.90;63.40;;;;;;5033188;28;20029;-74
2021/07/06 00:12:56;;;;;;;5.63;2.03;;;21.90;63.40;;;;;;5033103;28;20087;-74
2021/07/06 00:15:25;;;;;;;4.15;1.60;;;21.90;63.40;;;;;;5032955;28;20477;-74
2021/07/06 00:17:52;;;;;;;5.55;1.70;;;21.80;63.40;;;;;;5033248;28;20449;-74
2021/07/06 00:20:19;;;;;;;4.60;2.00;;;21.80;63.40;;;;;;5033947;28;20032;-74
2021/07/06 00:22:45;;;;;;;6.43;1.63;;;21.90;63.40;;;;;;5033701;28;20393;-74
2021/07/06 00:25:11;;;;;;;6.00;2.38;;;21.90;63.40;;;;;;5034089;28;20021;-74
2021/07/06 00:27:38;;;;;;;4.25;1.48;;;21.90;63.40;;;;;;5033256;28;20018;-74
2021/07/06 00:30:05;;;;;;;4.65;1.98;;;21.90;63.40;;;;;;5031855;28;20365;-74
2021/07/06 00:32:31;;;;;;;4.13;1.55;;;21.80;63.40;;;;;;5032809;28;20049;-74
2021/07/06 00:34:56;;;;;;;6.38;2.05;;;21.80;63.40;;;;;;5033112;28;20044;-73
2021/07/06 00:37:22;;;;;;;4.82;1.75;;;21.80;63.30;;;;;;5031950;28;20412;-74
2021/07/06 00:39:47;;;;;;;4.57;1.73;;;21.90;63.40;;;;;;5033258;28;20029;-74
2021/07/06 00:42:13;;;;;;;4.97;1.80;;;21.80;63.40;;;;;;5031988;28;20104;-74
2021/07/06 00:44:38;;;;;;;5.20;1.55;;;21.90;63.40;;;;;;5032920;28;20030;-74
2021/07/06 00:47:05;;;;;;;5.80;1.90;;;21.80;63.40;;;;;;5033184;28;20026;-74
2021/07/06 00:49:31;;;;;;;4.78;1.85;;;21.80;63.40;;;;;;5033375;28;20026;-74
2021/07/06 00:51:57;;;;;;;4.90;1.60;;;21.80;63.30;;;;;;5033232;28;20104;-73
2021/07/06 00:54:22;;;;;;;5.15;1.60;;;21.80;63.40;;;;;;5033319;28;20103;-74
2021/07/06 00:56:48;;;;;;;8.57;2.53;;;21.80;63.40;;;;;;5032355;28;20029;-74
2021/07/06 00:59:14;;;;;;;6.20;2.40;;;21.80;63.30;;;;;;5033892;28;20025;-74
2021/07/06 01:01:40;;;;;;;3.80;1.75;;;21.80;63.40;;;;;;5035577;28;20025;-74
2021/07/06 01:04:05;;;;;;;4.65;1.80;;;21.80;63.40;;;;;;5037433;28;20033;-74
2021/07/06 01:06:31;;;;;;;4.97;1.42;;;21.70;63.30;;;;;;5037077;28;20029;-74
2021/07/06 01:08:57;;;;;;;5.90;1.67;;;21.80;63.40;;;;;;5036509;28;20064;-74
2021/07/06 01:11:23;;;;;;;10.32;1.77;;;21.80;63.40;;;;;;5036335;28;20038;-74
2021/07/06 01:13:49;;;;;;;4.68;1.55;;;21.80;63.40;;;;;;5036382;28;20028;-74
2021/07/06 01:16:15;;;;;;;5.57;1.83;;;21.80;63.40;;;;;;5034833;28;20543;-74
2021/07/06 01:18:40;;;;;;;4.72;1.77;;;21.80;63.40;;;;;;5036213;28;20046;-74
2021/07/06 01:21:06;;;;;;;4.25;1.77;;;21.80;63.40;;;;;;5036202;28;20477;-74
2021/07/06 01:23:32;;;;;;;4.30;1.60;;;21.80;63.40;;;;;;5036253;28;20495;-74
2021/07/06 01:26:01;;;;;;;4.63;1.50;;;21.80;63.40;;;;;;5036276;28;20490;-74
2021/07/06 01:28:27;;;;;;;3.30;1.60;;;21.80;63.40;;;;;;5036137;28;20375;-74
2021/07/06 01:30:53;;;;;;;6.38;1.92;;;21.80;63.40;;;;;;5036148;28;20021;-74
2021/07/06 01:33:24;;;;;;;3.00;1.50;;;21.80;63.40;;;;;;5035823;28;20053;-73
2021/07/06 01:35:56;;;;;;;4.13;1.85;;;21.70;63.40;;;;;;5036259;28;20120;-74
2021/07/06 01:38:22;;;;;;;3.85;1.40;;;21.80;63.40;;;;;;5035851;28;20025;-74
2021/07/06 01:40:47;;;;;;;4.70;1.90;;;21.80;63.30;;;;;;5036166;28;20021;-74
2021/07/06 01:43:14;;;;;;;4.63;1.55;;;21.80;63.40;;;;;;5035907;28;20026;-75
2021/07/06 01:45:39;;;;;;;5.35;1.58;;;21.70;63.40;;;;;;5035938;28;20089;-74
2021/07/06 01:48:05;;;;;;;4.20;1.90;;;21.70;63.40;;;;;;5036247;28;20472;-74
2021/07/06 01:50:34;;;;;;;4.78;2.15;;;21.70;63.40;;;;;;5035925;28;20028;-74
2021/07/06 01:53:03;;;;;;;4.75;1.70;;;21.70;63.40;;;;;;5034445;28;20025;-74
2021/07/06 01:55:37;;;;;;;4.28;1.60;;;21.70;63.40;;;;;;5035553;28;20128;-74
2021/07/06 01:58:10;;;;;;;3.00;1.17;;;21.70;63.40;;;;;;5035800;28;20381;-74
2021/07/06 02:00:46;;;;;;;7.60;1.77;;;21.70;63.40;;;;;;5035624;28;20477;-74
2021/07/06 02:03:12;;;;;;;6.80;1.80;;;21.70;63.40;;;;;;5035646;28;20068;-74
2021/07/06 02:05:45;;;;;;;4.28;1.58;;;21.70;63.40;;;;;;5035504;28;20653;-74
2021/07/06 02:08:14;;;;;;;3.78;1.70;;;21.70;63.40;;;;;;5036405;28;20045;-74
2021/07/06 02:10:40;;;;;;;3.97;1.60;;;21.70;63.30;;;;;;5039638;28;20576;-73
2021/07/06 02:13:16;;;;;;;5.05;1.60;;;21.70;63.40;;;;;;5034806;28;20034;-74
2021/07/06 02:15:42;;;;;;;4.22;1.55;;;21.70;63.30;;;;;;5035721;28;20037;-74
2021/07/06 02:18:18;;;;;;;3.80;1.33;;;21.70;63.40;;;;;;5034075;28;20044;-74
2021/07/06 02:20:44;;;;;;;4.20;1.90;;;21.70;63.30;;;;;;5035619;28;20080;-74
2021/07/06 02:23:10;;;;;;;2.90;1.42;;;21.70;63.40;;;;;;5035696;28;20471;-73
2021/07/06 02:25:36;;;;;;;4.70;1.42;;;21.70;63.30;;;;;;5034108;28;20068;-74
2021/07/06 02:28:02;;;;;;;3.25;1.52;;;21.70;63.40;;;;;;5035241;28;20028;-74
2021/07/06 02:30:28;;;;;;;3.78;1.63;;;21.70;63.40;;;;;;5034965;28;20025;-74
2021/07/06 02:32:53;;;;;;;6.22;1.60;;;21.70;63.40;;;;;;5034997;28;20477;-74
2021/07/06 02:35:19;;;;;;;4.25;1.92;;;21.70;63.40;;;;;;5034929;28;20033;-74
2021/07/06 02:37:46;;;;;;;4.55;1.30;;;21.70;63.30;;;;;;5035026;28;20464;-74
2021/07/06 02:40:13;;;;;;;4.10;1.95;;;21.70;63.40;;;;;;5035026;28;20274;-74
2021/07/06 02:42:40;;;;;;;3.08;1.23;;;21.70;63.30;;;;;;5034602;28;20199;-74
2021/07/06 02:45:09;;;;;;;3.25;1.35;;;21.70;63.30;;;;;;5034620;28;20036;-74
2021/07/06 02:47:35;;;;;;;4.85;1.60;;;21.70;63.40;;;;;;5034927;28;20017;-74
2021/07/06 02:50:01;;;;;;;2.47;1.35;;;21.70;63.30;;;;;;5033523;28;20037;-74
2021/07/06 02:52:26;;;;;;;4.65;1.30;;;21.70;63.40;;;;;;5033380;28;20029;-74
2021/07/06 02:54:52;;;;;;;4.80;1.70;;;21.70;63.30;;;;;;5034399;28;20469;-74
2021/07/06 03:00:10;;;;;;;5.70;1.70;;;21.70;63.30;;;;;;5034695;28;20028;-74
2021/07/06 03:02:41;;;;;;;3.15;1.30;;;21.70;63.30;;;;;;5034401;28;20034;-74
2021/07/06 03:05:09;;;;;;;3.47;1.40;;;21.60;63.30;;;;;;5034882;28;20022;-74
2021/07/06 03:07:36;;;;;;;3.78;1.48;;;21.70;63.40;;;;;;5034432;28;20068;-74
2021/07/06 03:10:04;;;;;;;3.88;1.50;;;21.70;63.40;;;;;;5034614;28;20030;-74
2021/07/06 03:12:29;;;;;;;3.67;1.25;;;21.70;63.40;;;;;;5034332;28;20056;-74
2021/07/06 03:14:55;;;;;;;4.10;1.27;;;21.70;63.40;;;;;;5034213;28;20069;-74
2021/07/06 03:17:20;;;;;;;3.83;1.60;;;21.60;63.40;;;;;;5034387;28;20025;-74
2021/07/06 03:19:46;;;;;;;4.75;1.63;;;21.70;63.30;;;;;;5034181;28;20033;-74
2021/07/06 03:22:11;;;;;;;4.03;1.58;;;21.70;63.30;;;;;;5034503;28;20047;-74
2021/07/06 03:24:37;;;;;;;2.60;1.17;;;21.60;63.40;;;;;;5034322;28;20025;-74
2021/07/06 03:27:03;;;;;;;3.88;1.50;;;21.70;63.30;;;;;;5034175;28;20120;-74
2021/07/06 03:29:28;;;;;;;3.65;1.30;;;21.60;63.30;;;;;;5034245;28;20021;-74
2021/07/06 03:31:54;;;;;;;3.80;1.50;;;21.60;63.30;;;;;;5033831;28;20465;-74
2021/07/06 03:34:20;;;;;;;4.88;1.40;;;21.60;63.40;;;;;;5034414;28;20040;-74
2021/07/06 03:36:45;;;;;;;4.60;1.50;;;21.60;63.40;;;;;;5034303;28;20029;-74
2021/07/06 03:39:11;;;;;;;4.65;1.45;;;21.60;63.40;;;;;;5034035;28;20025;-74
2021/07/06 03:41:36;;;;;;;2.63;1.33;;;21.70;63.30;;;;;;5035793;28;20079;-74
2021/07/06 03:44:02;;;;;;;4.10;1.58;;;21.70;63.40;;;;;;5037590;28;20445;-75
2021/07/06 03:46:28;;;;;;;3.63;1.30;;;21.70;63.30;;;;;;5034824;28;20457;-74
2021/07/06 03:48:53;;;;;;;2.72;1.25;;;21.60;63.40;;;;;;5034023;28;20033;-74
2021/07/06 03:51:19;;;;;;;4.72;1.23;;;21.70;63.40;;;;;;5034639;28;20478;-74
2021/07/06 03:53:45;;;;;;;2.85;1.35;;;21.60;63.40;;;;;;5033972;28;20115;-74
2021/07/06 03:56:10;;;;;;;5.65;1.40;;;21.60;63.30;;;;;;5034088;28;20366;-74
2021/07/06 03:58:36;;;;;;;3.10;1.30;;;21.60;63.40;;;;;;5034766;28;20032;-74
2021/07/06 04:01:02;;;;;;;3.85;1.48;;;21.60;63.30;;;;;;5034756;28;20021;-74
2021/07/06 04:03:28;;;;;;;3.47;1.45;;;21.60;63.30;;;;;;5040856;28;20440;-74
2021/07/06 04:05:53;;;;;;;2.25;1.40;;;21.60;63.30;;;;;;5043093;28;20044;-74
2021/07/06 04:08:19;;;;;;;5.20;1.70;;;21.70;63.40;;;;;;5034373;28;20021;-74
2021/07/06 04:10:44;;;;;;;4.05;1.45;;;21.60;63.30;;;;;;5033646;28;20034;-74
2021/07/06 04:13:10;;;;;;;2.80;1.33;;;21.60;63.30;;;;;;5033805;28;20030;-74
2021/07/06 04:15:38;;;;;;;4.00;1.30;;;21.60;63.30;;;;;;5033630;28;20037;-74
2021/07/06 04:18:04;;;;;;;3.33;1.40;;;21.60;63.30;;;;;;5033684;28;20036;-74
2021/07/06 04:20:29;;;;;;;4.00;1.42;;;21.70;63.30;;;;;;5033756;28;20038;-74
2021/07/06 04:22:55;;;;;;;3.92;1.27;;;21.60;63.30;;;;;;5033744;28;20018;-74
2021/07/06 04:25:21;;;;;;;3.70;1.60;;;21.70;63.30;;;;;;5033782;28;20025;-74
2021/07/06 04:27:47;;;;;;;3.08;1.27;;;21.70;63.30;;;;;;5033856;28;20385;-74
2021/07/06 04:30:13;;;;;;;2.95;1.10;;;21.60;63.30;;;;;;5033607;28;20045;-73
2021/07/06 04:32:39;;;;;;;3.38;1.38;;;21.60;63.30;;;;;;5033382;28;20099;-74
2021/07/06 04:35:06;;;;;;;4.82;1.50;;;21.60;63.30;;;;;;5034508;28;20037;-74
2021/07/06 04:37:32;;;;;;;3.42;1.50;;;21.70;63.30;;;;;;5037728;28;20025;-74
2021/07/06 04:39:59;;;;;;;5.25;1.55;;;21.60;63.30;;;;;;5037395;28;20025;-74
2021/07/06 04:42:24;;;;;;;2.03;0.95;;;21.60;63.30;;;;;;5037107;28;20156;-74
2021/07/06 04:44:50;;;;;;;3.70;1.50;;;21.70;63.30;;;;;;5037173;28;20465;-74
2021/07/06 04:47:16;;;;;;;3.72;1.40;;;21.70;63.30;;;;;;5037161;28;20075;-74
2021/07/06 04:49:41;;;;;;;4.43;1.60;;;21.60;63.30;;;;;;5035977;28;20036;-74
2021/07/06 04:52:07;;;;;;;3.63;1.20;;;21.60;63.30;;;;;;5037318;28;20063;-74
2021/07/06 04:54:33;;;;;;;2.80;1.10;;;21.70;63.30;;;;;;5035743;28;20362;-74
2021/07/06 04:56:59;;;;;;;2.85;1.48;;;21.70;63.30;;;;;;5037053;28;20021;-74
2021/07/06 04:59:25;;;;;;;2.42;1.20;;;21.70;63.30;;;;;;5036908;28;20420;-74
2021/07/06 05:01:50;;;;;;;3.25;1.30;;;21.70;63.30;;;;;;5037171;28;20112;-74
2021/07/06 05:04:16;;;;;;;3.20;1.30;;;21.70;63.30;;;;;;5036844;28;20021;-74
2021/07/06 05:06:42;;;;;;;2.05;1.10;;;21.70;63.30;;;;;;5036932;28;20040;-74
2021/07/06 05:09:08;;;;;;;1.88;1.00;;;21.70;63.30;;;;;;5036861;28;20469;-74
2021/07/06 05:11:34;;;;;;;2.90;1.20;;;21.70;63.30;;;;;;5036894;28;20593;-74
2021/07/06 05:14:01;;;;;;;2.53;1.10;;;21.70;63.30;;;;;;5036943;28;20124;-74
2021/07/06 05:16:26;;;;;;;2.97;1.42;;;21.70;63.30;;;;;;5037147;28;20515;-74
2021/07/06 05:18:52;;;;;;;2.55;1.17;;;21.60;63.30;;;;;;5037010;28;20030;-74
2021/07/06 05:21:18;;;;;;;2.47;1.33;;;21.70;63.30;;;;;;5037092;28;20393;-74
2021/07/06 05:23:43;;;;;;;2.70;1.23;;;21.70;63.30;;;;;;5036964;28;20033;-74
2021/07/06 05:26:09;;;;;;;3.30;2.13;;;21.70;63.30;;;;;;5037852;28;20036;-74
2021/07/06 05:28:35;;;;;;;3.10;1.10;;;21.70;63.30;;;;;;5036981;28;20025;-74
2021/07/06 05:31:03;;;;;;;2.05;1.00;;;21.60;63.30;;;;;;5041260;28;20064;-73
2021/07/06 05:33:28;;;;;;;2.97;1.15;;;21.70;63.30;;;;;;5026516;28;20515;-73
2021/07/06 05:35:54;;;;;;;2.95;1.30;;;21.70;63.40;;;;;;5034906;28;20034;-74
2021/07/06 05:38:19;;;;;;;3.28;1.30;;;21.70;63.40;;;;;;5051202;28;20022;-77
2021/07/06 05:40:45;;;;;;;2.47;1.20;;;21.70;63.40;;;;;;5059851;28;20026;-76
2021/07/06 05:43:11;;;;;;;3.53;1.20;;;21.70;63.40;;;;;;5024775;28;20018;-76
2021/07/06 05:45:37;;;;;;;4.70;1.20;;;21.70;63.50;;;;;;5023665;28;20072;-77
2021/07/06 05:48:03;;;;;;;3.50;1.30;;;21.70;63.40;;;;;;5023656;28;20038;-77
2021/07/06 05:50:29;;;;;;;2.42;1.30;;;21.70;63.50;;;;;;5029699;28;20110;-77
2021/07/06 05:52:54;;;;;;;3.65;1.10;;;21.70;63.40;;;;;;5065878;28;20044;-77
2021/07/06 05:55:20;;;;;;;3.60;1.40;;;21.70;63.50;;;;;;5064859;28;20033;-76
2021/07/06 05:57:46;;;;;;;2.88;1.13;;;21.70;63.40;;;;;;5062188;28;20117;-76
2021/07/06 06:00:14;;;;;;;4.30;1.13;;;21.70;63.50;;;;;;5061309;28;20052;-75
2021/07/06 06:02:40;;;;;;;2.50;1.10;;;21.70;63.40;;;;;;5062409;28;20121;-74
2021/07/06 06:05:07;;;;;;;3.90;1.23;;;21.70;63.50;;;;;;5055107;28;20074;-75
2021/07/06 06:07:43;;;;;;;3.95;1.52;;;21.70;63.50;;;;;;5054284;28;20047;-74
2021/07/06 06:10:11;;;;;;;4.18;1.35;;;21.70;63.50;;;;;;5054482;28;20033;-74
2021/07/06 06:12:37;;;;;;;3.60;1.42;;;21.70;63.50;;;;;;5052833;28;20480;-75
2021/07/06 06:15:04;;;;;;;1.98;1.17;;;21.70;63.50;;;;;;5033202;28;20038;-75
2021/07/06 06:17:30;;;;;;;4.20;1.52;;;21.70;63.50;;;;;;5034067;28;20029;-74
2021/07/06 06:19:56;;;;;;;2.33;0.88;;;21.70;63.50;;;;;;5034350;28;20476;-75
2021/07/06 06:22:21;;;;;;;1.70;1.08;;;21.70;63.50;;;;;;5034102;28;20030;-74
2021/07/06 06:24:47;;;;;;;2.53;1.08;;;21.70;63.50;;;;;;5034727;28;20080;-74
2021/07/06 06:27:12;;;;;;;2.97;1.35;;;21.70;63.60;;;;;;5034990;28;20021;-74
2021/07/06 06:29:38;;;;;;;4.07;1.58;;;21.70;63.60;;;;;;5037216;28;20025;-74
2021/07/06 06:32:04;;;;;;;2.83;1.27;;;21.70;63.60;;;;;;5020193;28;20060;-74
2021/07/06 06:34:30;;;;;;;4.22;1.40;;;21.70;63.60;;;;;;5019505;28;20057;-74
2021/07/06 06:37:01;;;;;;;3.08;1.20;;;21.70;63.60;;;;;;5021706;28;20528;-74
2021/07/06 06:39:27;;;;;;;3.47;1.38;;;21.70;63.60;;;;;;5021317;28;20026;-75
2021/07/06 06:41:53;;;;;;;2.50;1.20;;;21.70;63.60;;;;;;5029613;28;20036;-72
2021/07/06 06:44:19;;;;;;;3.55;1.42;;;21.70;63.60;;;;;;5061083;28;20018;-72
2021/07/06 06:46:44;;;;;;;3.05;1.23;;;21.70;63.50;;;;;;5053600;28;20495;-72
2021/07/06 06:49:10;;;;;;;3.60;1.00;;;21.70;63.60;;;;;;5052331;28;20357;-73
2021/07/06 06:51:36;;;;;;;4.97;1.27;;;21.70;63.60;;;;;;5040955;28;20033;-75
2021/07/06 06:54:02;;;;;;;3.08;1.08;;;21.80;63.70;;;;;;5032585;28;20508;-70
2021/07/06 06:56:31;;;;;;;3.70;1.15;;;21.70;63.70;;;;;;5036123;28;20395;-72
2021/07/06 06:58:56;;;;;;;4.20;1.20;;;21.80;63.70;;;;;;5052761;28;20052;-72
2021/07/06 07:01:23;;;;;;;3.38;1.33;;;21.80;63.60;;;;;;5051050;28;20049;-72
2021/07/06 07:03:48;;;;;;;3.13;1.30;;;21.80;63.70;;;;;;5032301;28;20083;-72
2021/07/06 07:06:14;;;;;;;5.00;1.30;;;21.70;63.70;;;;;;5033031;28;20029;-69
2021/07/06 07:08:40;;;;;;;3.15;1.20;;;21.70;63.70;;;;;;5033148;28;20075;-69
2021/07/06 07:11:05;;;;;;;2.85;1.30;;;21.70;63.70;;;;;;5031679;28;20485;-68
2021/07/06 07:13:31;;;;;;;2.33;1.20;;;21.80;63.70;;;;;;5032342;28;20034;-69
2021/07/06 07:15:56;;;;;;;2.67;1.10;;;21.80;63.70;;;;;;5032782;28;20044;-72
2021/07/06 07:18:22;;;;;;;2.40;1.08;;;21.80;63.80;;;;;;5032299;28;20487;-70
2021/07/06 07:20:47;;;;;;;2.70;1.10;;;21.70;63.80;;;;;;5032623;28;20112;-69
2021/07/06 07:23:13;;;;;;;2.78;1.23;;;21.80;63.80;;;;;;5032399;28;20115;-70
2021/07/06 07:25:38;;;;;;;4.53;1.25;;;21.70;63.90;;;;;;5032252;28;20021;-70
2021/07/06 07:28:05;;;;;;;3.80;1.30;;;21.70;63.90;;;;;;5031924;28;20052;-73
2021/07/06 07:30:31;;;;;;;2.75;1.38;;;21.80;63.90;;;;;;5023597;28;20037;-70
2021/07/06 07:32:56;;;;;;;5.45;1.23;;;21.80;63.90;;;;;;5011897;28;20045;-70
2021/07/06 07:35:22;;;;;;;2.35;0.98;;;21.80;63.90;;;;;;5029280;28;20043;-70
2021/07/06 07:37:49;;;;;;;3.60;1.40;;;21.80;63.90;;;;;;5032031;28;20056;-70
2021/07/06 07:40:17;;;;;;;5.47;1.10;;;21.80;64.00;;;;;;5031960;28;20021;-71
2021/07/06 07:42:43;;;;;;;4.05;1.23;;;21.80;64.00;;;;;;5031112;28;20442;-70
2021/07/06 07:45:09;;;;;;;2.42;1.17;;;21.80;64.00;;;;;;5031758;28;20061;-69
2021/07/06 07:47:35;;;;;;;3.30;1.40;;;21.80;64.10;;;;;;5031922;28;20025;-72
2021/07/06 07:50:04;;;;;;;2.45;1.38;;;21.80;64.10;;;;;;5031997;28;20408;-74
2021/07/06 07:52:31;;;;;;;3.63;1.27;;;21.90;64.10;;;;;;5031651;28;20108;-71
2021/07/06 07:54:56;;;;;;;2.25;1.20;;;21.90;64.10;;;;;;5031412;28;20029;-70
2021/07/06 07:57:24;;;;;;;4.25;1.30;;;21.90;64.20;;;;;;5032005;28;20025;-70
2021/07/06 07:59:51;;;;;;;3.40;1.40;;;21.90;64.20;;;;;;5031533;28;20025;-69
2021/07/06 08:02:17;;;;;;;2.65;1.17;;;21.80;64.20;;;;;;5031573;28;20109;-70
2021/07/06 08:04:42;;;;;;;2.10;1.08;;;21.90;64.20;;;;;;5031417;28;20113;-71
2021/07/06 08:07:10;;;;;;;2.83;1.40;;;21.90;64.20;;;;;;5031724;28;20056;-68
2021/07/06 08:09:35;;;;;;;1.73;0.95;;;21.90;64.30;;;;;;5030771;28;20089;-72
2021/07/06 08:12:01;;;;;;;2.97;1.23;;;21.90;64.40;;;;;;5030852;28;20033;-67
2021/07/06 08:14:26;;;;;;;2.42;1.00;;;21.90;64.30;;;;;;5027730;28;20021;-66
2021/07/06 08:16:54;;;;;;;3.40;1.30;;;21.90;64.30;;;;;;5028931;28;20048;-67
2021/07/06 08:19:21;;;;;;;2.35;1.17;;;22.00;64.40;;;;;;5031014;28;20524;-69
2021/07/06 08:21:46;;;;;;;4.78;1.30;;;22.00;64.50;;;;;;5034993;28;20025;-71
2021/07/06 08:24:12;;;;;;;4.82;1.17;;;22.00;64.70;;;;;;5029460;28;20030;-68
2021/07/06 08:26:38;;;;;;;2.58;1.10;;;22.00;64.80;;;;;;5031369;28;20592;-68
2021/07/06 08:29:04;;;;;;;4.28;1.25;;;22.00;65.20;;;;;;5031343;28;20049;-68
2021/07/06 08:31:30;;;;;;;5.07;1.30;;;22.00;66.00;;;;;;5024029;28;20040;-64
2021/07/06 08:33:56;;;;;;;4.88;1.48;;;22.00;65.90;;;;;;5030366;28;20461;-64
2021/07/06 08:36:22;;;;;;;3.00;1.15;;;22.00;65.90;;;;;;5029761;28;20037;-66
2021/07/06 08:38:47;;;;;;;4.28;1.38;;;22.00;65.80;;;;;;5030593;28;20037;-69
2021/07/06 08:41:13;;;;;;;3.50;1.40;;;22.00;65.70;;;;;;5029293;28;20032;-66
2021/07/06 08:43:40;;;;;;;2.33;1.20;;;22.00;65.70;;;;;;5030450;28;20029;-64
2021/07/06 08:46:06;;;;;;;3.28;1.08;;;22.00;65.70;;;;;;5032596;28;20035;-63
2021/07/06 08:48:33;;;;;;;4.75;1.95;;;22.00;65.70;;;;;;5028397;28;20029;-63
2021/07/06 08:51:04;;;;;;;4.85;1.00;;;22.10;65.60;;;;;;5035032;28;20108;-64
2021/07/06 08:53:30;;;;;;;3.25;1.23;;;22.10;65.70;;;;;;5048589;28;20028;-64
2021/07/06 08:55:58;;;;;;;3.00;1.20;;;22.10;65.60;;;;;;5047834;28;20041;-63
2021/07/06 08:58:23;;;;;;;3.55;1.45;;;22.10;65.50;;;;;;5048602;28;20465;-64
2021/07/06 09:00:49;;;;;;;3.35;1.27;;;22.10;65.60;;;;;;5049501;28;20025;-64
2021/07/06 09:03:15;;;;;;;3.50;1.20;;;22.10;65.60;;;;;;5052647;28;20354;-64
2021/07/06 09:05:40;;;;;;;3.40;1.02;;;22.10;65.60;;;;;;5051797;28;20112;-64
2021/07/06 09:08:07;;;;;;;2.90;1.10;;;22.10;65.50;;;;;;5051232;28;20028;-64
2021/07/06 09:10:38;;;;;;;2.10;0.98;;;22.10;65.50;;;;;;5052028;28;20099;-64
2021/07/06 09:13:30;;;;;;;2.95;1.00;;;22.10;65.50;;;;;;5051267;28;20104;-63
2021/07/06 09:15:57;;;;;;;5.20;1.20;;;22.20;65.50;;;;;;5049882;28;20047;-64
2021/07/06 09:18:28;;;;;;;1.52;1.00;;;22.20;65.40;;;;;;5050044;28;20025;-63
2021/07/06 09:21:03;;;;;;;5.18;1.00;;;22.10;65.40;;;;;;5049913;28;20477;-63
2021/07/06 09:23:31;;;;;;;5.35;1.38;;;22.10;65.40;;;;;;5053590;28;20017;-63
2021/07/06 09:26:19;;;;;;;4.50;1.10;;;22.10;65.30;;;;;;5054154;28;20025;-63
2021/07/06 09:28:52;;;;;;;4.03;1.30;;;22.10;65.20;;;;;;5053944;28;20028;-63
2021/07/06 09:31:26;;;;;;;5.00;1.15;;;22.20;65.20;;;;;;5054116;28;20098;-63
2021/07/06 09:34:02;;;;;;;2.30;1.00;;;22.20;65.30;;;;;;5053971;28;20123;-63
2021/07/06 09:36:48;;;;;;;3.17;1.10;;;22.20;65.20;;;;;;5054147;28;20049;-63
2021/07/06 09:39:18;;;;;;;4.57;1.05;;;22.10;65.20;;;;;;5054391;28;20025;-63
2021/07/06 09:42:06;;;;;;;3.90;1.27;;;22.20;65.20;;;;;;5054804;28;20063;-63
2021/07/06 09:44:36;;;;;;;6.78;1.33;;;22.20;65.20;;;;;;5055467;28;20079;-63
2021/07/06 09:47:10;;;;;;;2.75;1.30;;;22.20;65.10;;;;;;5055727;28;20029;-64
2021/07/06 09:49:37;;;;;;;2.67;1.10;;;22.20;65.00;;;;;;5054087;28;20478;-64
2021/07/06 09:52:09;;;;;;;2.60;1.27;;;22.20;65.00;;;;;;5043471;28;20079;-63
2021/07/06 09:54:37;;;;;;;1.92;0.93;;;22.20;65.10;;;;;;5036283;28;20029;-66
2021/07/06 09:57:08;;;;;;;4.00;1.20;;;22.20;65.10;;;;;;5036262;28;20503;-70
2021/07/06 09:59:34;;;;;;;1.85;1.00;;;22.20;65.10;;;;;;5033638;28;20029;-70
2021/07/06 10:02:03;;;;;;;3.30;1.55;;;22.20;65.00;;;;;;5033841;28;20402;-67
2021/07/06 10:04:29;;;;;;;2.45;1.13;;;22.20;65.10;;;;;;5033865;28;20025;-66
2021/07/06 10:06:58;;;;;;;2.78;1.23;;;22.20;65.20;;;;;;5033657;28;20053;-63
2021/07/06 10:09:25;;;;;;;4.80;1.05;;;22.20;65.30;;;;;;5033827;28;20116;-65
2021/07/06 10:11:52;;;;;;;1.58;0.90;;;22.20;65.40;;;;;;5030451;28;20021;-65
2021/07/06 10:14:19;;;;;;;2.78;0.98;;;22.20;65.50;;;;;;5033950;28;20033;-65
2021/07/06 10:16:45;;;;;;;3.60;1.40;;;22.20;65.60;;;;;;5034506;28;20032;-66
2021/07/06 10:19:11;;;;;;;3.67;1.38;;;22.20;65.60;;;;;;5031753;28;20090;-67
2021/07/06 10:21:37;;;;;;;6.28;1.20;;;22.20;65.70;;;;;;5032430;28;20402;-65
2021/07/06 10:24:04;;;;;;;2.38;0.90;;;22.20;65.60;;;;;;5034076;28;20025;-65
2021/07/06 10:26:31;;;;;;;3.45;1.00;;;22.20;65.70;;;;;;5033557;28;20457;-66
2021/07/06 10:28:57;;;;;;;2.85;0.80;;;22.30;66.10;;;;;;5027230;28;20071;-67
2021/07/06 10:31:24;;;;;;;4.80;0.77;;;22.30;65.80;;;;;;5032757;28;20108;-67
2021/07/06 10:33:50;;;;;;;5.20;1.02;;;22.30;65.90;;;;;;5032822;28;20057;-67
2021/07/06 10:36:17;;;;;;;4.35;1.25;;;22.40;65.80;;;;;;5033779;28;20116;-66
2021/07/06 10:38:45;;;;;;;2.22;0.80;;;22.30;65.80;;;;;;5033071;28;20048;-65
2021/07/06 10:41:41;;;;;;;1.50;0.82;;;22.30;65.80;;;;;;5022223;28;20497;-71
2021/07/06 10:44:08;;;;;;;3.28;1.00;;;22.40;66.00;;;;;;5026982;28;20029;-68
2021/07/06 10:46:40;;;;;;;1.67;0.80;;;22.40;66.00;;;;;;5031078;28;20520;-69
2021/07/06 10:49:11;;;;;;;1.35;0.73;;;22.40;65.80;;;;;;5029095;28;20484;-67
2021/07/06 10:51:37;;;;;;;2.80;0.70;;;22.40;65.60;;;;;;5032956;28;20026;-67
2021/07/06 10:54:08;;;;;;;1.50;0.80;;;22.50;65.60;;;;;;5032008;28;20027;-69
2021/07/06 10:56:42;;;;;;;1.88;0.70;;;22.50;65.70;;;;;;5030271;28;20061;-67
2021/07/06 10:59:26;;;;;;;4.72;1.10;;;22.50;65.60;;;;;;5030934;28;20025;-66
2021/07/06 11:01:59;;;;;;;2.33;0.85;;;22.50;65.50;;;;;;5029789;28;20021;-68
2021/07/06 11:04:45;;;;;;;2.05;0.88;;;22.60;65.70;;;;;;5031722;28;20044;-67
2021/07/06 11:07:29;;;;;;;4.55;1.20;;;22.60;65.60;;;;;;5029176;28;20381;-68
2021/07/06 11:09:55;;;;;;;3.67;1.15;;;22.60;65.70;;;;;;5028857;28;20029;-67
2021/07/06 11:12:23;;;;;;;2.83;1.05;;;22.60;65.70;;;;;;5029999;28;20401;-67
2021/07/06 11:14:54;;;;;;;4.60;1.10;;;22.60;65.60;;;;;;5031946;28;20036;-67
2021/07/06 11:17:37;;;;;;;1.42;0.73;;;22.60;65.70;;;;;;5032647;28;20095;-67
2021/07/06 11:20:03;;;;;;;1.83;1.00;;;22.60;65.50;;;;;;5025882;28;20044;-65
2021/07/06 11:22:51;;;;;;;4.15;1.02;;;22.60;65.40;;;;;;5011430;28;20117;-67
2021/07/06 11:25:21;;;;;;;3.03;1.00;;;22.60;65.30;;;;;;5024682;28;20036;-67
2021/07/06 11:28:02;;;;;;;3.30;0.98;;;22.70;65.20;;;;;;5028733;28;20068;-70
2021/07/06 11:30:45;;;;;;;1.10;0.73;;;22.60;65.10;;;;;;5032054;28;20033;-69
2021/07/06 11:33:36;;;;;;;2.65;1.02;;;22.70;64.80;;;;;;5026574;28;20042;-69
2021/07/06 11:36:08;;;;;;;1.70;0.88;;;22.80;64.60;;;;;;5029888;28;20044;-66
2021/07/06 11:38:33;;;;;;;2.05;1.08;;;22.90;64.50;;;;;;5030744;28;20021;-67
2021/07/06 11:41:01;;;;;;;4.30;1.00;;;22.90;64.40;;;;;;5031831;28;20116;-67
2021/07/06 11:43:29;;;;;;;3.67;0.80;;;22.90;64.50;;;;;;5031890;28;20032;-69
2021/07/06 11:45:59;;;;;;;2.30;1.00;;;22.90;64.30;;;;;;5032517;28;20029;-69
2021/07/06 11:48:29;;;;;;;1.48;0.80;;;22.90;64.30;;;;;;5032598;28;20031;-68
2021/07/06 11:50:59;;;;;;;4.25;1.00;;;23.00;64.00;;;;;;5030667;28;20068;-67
2021/07/06 11:53:31;;;;;;;2.50;0.80;;;22.90;64.10;;;;;;5031727;28;20065;-68
2021/07/06 11:55:58;;;;;;;2.53;0.65;;;23.00;64.20;;;;;;5031890;28;20057;-68
2021/07/06 11:58:26;;;;;;;2.35;0.90;;;23.00;63.70;;;;;;5031197;28;20025;-68
2021/07/06 12:00:52;;;;;;;2.67;0.90;;;23.00;63.60;;;;;;5031565;28;20025;-67
2021/07/06 12:03:27;;;;;;;2.67;0.80;;;23.00;63.70;;;;;;5031077;28;20109;-67
2021/07/06 12:06:16;;;;;;;2.55;1.10;;;23.00;63.70;;;;;;5033781;28;20551;-67
2021/07/06 12:08:44;;;;;;;2.13;0.82;;;23.00;63.80;;;;;;5033116;28;20099;-67
2021/07/06 12:11:13;;;;;;;2.05;0.60;;;23.10;63.80;;;;;;5031741;28;20025;-68
2021/07/06 12:13:42;;;;;;;1.70;0.80;;;23.00;63.70;;;;;;5033774;28;20519;-69
2021/07/06 12:16:18;;;;;;;1.38;0.75;;;23.00;63.70;;;;;;5014239;28;20034;-68
2021/07/06 12:18:51;;;;;;;3.28;0.95;;;23.00;63.70;;;;;;5012450;28;20395;-68
2021/07/06 12:21:39;;;;;;;1.17;0.65;;;23.00;63.70;;;;;;5012834;28;20026;-68
2021/07/06 12:24:06;;;;;;;1.08;0.60;;;23.10;63.40;;;;;;5012471;28;20105;-67
2021/07/06 12:26:33;;;;;;;1.23;0.70;;;23.10;63.50;;;;;;5027160;28;20032;-67
2021/07/06 12:28:58;;;;;;;1.90;0.90;;;23.20;63.50;;;;;;5051826;28;20465;-67
2021/07/06 12:31:34;;;;;;;2.45;0.70;;;23.20;63.40;;;;;;5051892;28;20044;-68
2021/07/06 12:34:06;;;;;;;1.27;0.60;;;23.30;63.30;;;;;;5052028;28;20041;-67
2021/07/06 12:36:36;;;;;;;2.42;0.80;;;23.30;63.20;;;;;;5051882;28;20112;-67
2021/07/06 12:39:35;;;;;;;1.55;0.82;;;23.40;63.10;;;;;;5052577;28;20074;-68
2021/07/06 12:42:06;;;;;;;3.80;0.73;;;23.40;63.10;;;;;;5052109;28;20025;-68
2021/07/06 12:44:51;;;;;;;2.28;0.80;;;23.40;63.00;;;;;;5052167;28;20555;-68
2021/07/06 12:47:33;;;;;;;1.58;0.85;;;23.50;63.00;;;;;;5051690;28;20071;-68
2021/07/06 12:49:59;;;;;;;1.50;0.60;;;23.50;63.00;;;;;;5051579;28;20025;-68
2021/07/06 12:52:33;;;;;;;1.88;0.90;;;23.50;62.70;;;;;;5052371;28;20025;-67
2021/07/06 12:55:10;;;;;;;1.27;0.75;;;23.50;62.70;;;;;;5052293;28;20044;-68